Time;durP1;ratioP1;P1;durP2;ratioP2;P2;SDS_P1;SDS_P2;PMS_P1;PMS_P2;Temp;Humidity;BMP_temperature;BMP_pressure;BME280_temperature;BME280_humidity;BME280_pressure;Samples;Min_cycle;Max_cycle;Signal;HPM_P1;HPM_P2
2021/08/18 00:02:45;;;;;;;8.67;4.97;;;11.20;99.90;;;;;;4412965;28;658422;-68
2021/08/18 00:05:33;;;;;;;12.90;8.23;;;11.20;99.90;;;;;;4394797;28;657332;-70
2021/08/18 00:08:22;;;;;;;12.60;6.33;;;11.30;99.90;;;;;;4415384;28;658904;-69
2021/08/18 00:11:09;;;;;;;11.73;6.63;;;11.30;99.90;;;;;;4389408;28;659112;-69
2021/08/18 00:13:57;;;;;;;11.27;5.80;;;11.30;99.90;;;;;;4411715;28;658023;-69
2021/08/18 00:16:45;;;;;;;10.95;5.78;;;11.30;99.90;;;;;;4393179;28;658446;-69
2021/08/18 00:19:33;;;;;;;11.90;6.00;;;11.30;99.90;;;;;;4389518;28;658157;-70
2021/08/18 00:22:21;;;;;;;7.90;4.80;;;11.30;99.90;;;;;;4411332;28;658283;-69
2021/08/18 00:25:10;;;;;;;8.83;5.03;;;11.30;99.90;;;;;;4394205;28;657323;-69
2021/08/18 00:27:58;;;;;;;9.23;4.80;;;11.20;99.90;;;;;;4392916;28;656585;-69
2021/08/18 00:30:46;;;;;;;9.17;4.37;;;11.20;99.90;;;;;;4414911;28;657667;-69
2021/08/18 00:33:33;;;;;;;9.07;4.70;;;11.20;99.90;;;;;;4397750;28;656829;-69
2021/08/18 00:36:21;;;;;;;9.90;4.30;;;11.30;99.90;;;;;;4416122;28;657879;-69
2021/08/18 00:39:08;;;;;;;11.10;4.87;;;11.30;99.90;;;;;;4397179;28;656870;-68
2021/08/18 00:41:58;;;;;;;16.37;7.63;;;11.30;99.90;;;;;;4414727;28;657750;-69
2021/08/18 00:44:46;;;;;;;9.47;4.97;;;11.40;99.90;;;;;;4392062;28;658792;-69
2021/08/18 00:47:41;;;;;;;7.10;4.00;;;11.40;99.90;;;;;;4397072;28;656803;-69
2021/08/18 00:50:29;;;;;;;6.67;4.47;;;11.40;99.90;;;;;;4370341;28;657025;-68
2021/08/18 00:53:16;;;;;;;12.13;4.70;;;11.40;99.90;;;;;;4416295;28;656722;-69
2021/08/18 00:56:04;;;;;;;10.23;4.43;;;11.50;99.90;;;;;;4392434;28;658818;-69
2021/08/18 00:58:55;;;;;;;7.47;4.00;;;11.50;99.90;;;;;;4403211;28;657754;-70
2021/08/18 01:01:44;;;;;;;8.83;4.70;;;11.50;99.90;;;;;;4397287;28;656481;-69
2021/08/18 01:04:33;;;;;;;9.07;4.57;;;11.60;99.90;;;;;;4415899;28;657037;-69
2021/08/18 01:07:21;;;;;;;7.03;3.97;;;11.60;99.90;;;;;;4397297;28;657333;-69
2021/08/18 01:10:14;;;;;;;7.57;4.00;;;11.60;99.90;;;;;;4397562;28;656484;-69
2021/08/18 01:13:03;;;;;;;10.70;4.87;;;11.60;99.90;;;;;;4393443;28;656973;-68
2021/08/18 01:15:53;;;;;;;8.87;4.73;;;11.60;99.90;;;;;;4383771;28;657553;-69
2021/08/18 01:18:42;;;;;;;7.93;4.60;;;11.70;99.90;;;;;;4391271;28;657259;-69
2021/08/18 01:21:31;;;;;;;10.80;4.90;;;11.70;99.90;;;;;;4397115;28;658117;-68
2021/08/18 01:24:20;;;;;;;9.70;4.73;;;11.70;99.90;;;;;;4395400;28;657762;-69
2021/08/18 01:27:08;;;;;;;9.93;5.17;;;11.70;99.90;;;;;;4400838;28;656488;-69
2021/08/18 01:29:58;;;;;;;11.03;4.77;;;11.60;99.90;;;;;;4415147;28;656127;-69
2021/08/18 01:32:50;;;;;;;11.73;4.67;;;11.70;99.90;;;;;;4391671;28;658417;-68
2021/08/18 01:35:38;;;;;;;8.37;4.63;;;11.70;99.90;;;;;;4373620;28;658206;-69
2021/08/18 01:38:26;;;;;;;10.93;5.17;;;11.70;99.90;;;;;;4415889;28;657070;-69
2021/08/18 01:41:13;;;;;;;17.90;5.43;;;11.70;99.90;;;;;;4394700;28;657378;-69
2021/08/18 01:44:01;;;;;;;11.43;5.23;;;11.70;99.90;;;;;;4414432;28;657215;-68
2021/08/18 01:46:50;;;;;;;11.70;5.20;;;11.80;99.90;;;;;;4395274;28;657855;-69
2021/08/18 01:49:37;;;;;;;9.30;4.40;;;11.80;99.90;;;;;;4395292;28;657333;-69
2021/08/18 01:52:25;;;;;;;14.17;6.00;;;11.80;99.90;;;;;;4419197;28;657773;-68
2021/08/18 01:55:13;;;;;;;53.00;15.57;;;11.80;99.90;;;;;;4394862;28;657815;-68
2021/08/18 01:58:00;;;;;;;58.33;18.03;;;11.80;99.90;;;;;;4412146;28;658966;-69
2021/08/18 02:00:48;;;;;;;39.47;11.27;;;11.80;99.90;;;;;;4390150;28;658540;-69
2021/08/18 02:03:37;;;;;;;209.83;61.87;;;11.70;99.90;;;;;;4412164;28;659798;-69
2021/08/18 02:06:25;;;;;;;192.83;58.37;;;11.70;99.90;;;;;;4387780;28;660001;-68
2021/08/18 02:09:12;;;;;;;133.57;43.20;;;11.70;99.90;;;;;;4392128;28;660187;-70
2021/08/18 02:12:00;;;;;;;112.73;34.57;;;11.70;99.90;;;;;;4410725;28;660664;-68
2021/08/18 02:14:48;;;;;;;65.73;25.57;;;11.60;99.90;;;;;;4392396;28;659832;-70
2021/08/18 02:17:35;;;;;;;44.47;18.47;;;11.60;99.90;;;;;;4415464;28;659064;-68
2021/08/18 02:20:26;;;;;;;30.67;13.27;;;11.50;99.90;;;;;;4394152;28;658835;-70
2021/08/18 02:23:14;;;;;;;36.80;20.07;;;11.50;99.90;;;;;;4393024;28;658423;-69
2021/08/18 02:26:01;;;;;;;18.83;10.07;;;11.50;99.90;;;;;;4412144;28;658867;-68
2021/08/18 02:28:49;;;;;;;26.67;12.10;;;11.50;99.90;;;;;;4393176;28;658628;-69
2021/08/18 02:31:36;;;;;;;25.97;11.27;;;11.50;99.90;;;;;;4411647;28;658971;-69
2021/08/18 02:34:24;;;;;;;19.17;10.43;;;11.40;99.90;;;;;;4392902;28;658826;-69
2021/08/18 02:37:13;;;;;;;19.33;9.10;;;11.40;99.90;;;;;;4411768;28;658833;-69
2021/08/18 02:40:00;;;;;;;17.60;9.10;;;11.40;99.90;;;;;;4390507;28;657926;-68
2021/08/18 02:42:48;;;;;;;25.30;10.63;;;11.40;99.90;;;;;;4386472;28;657685;-69
2021/08/18 02:45:36;;;;;;;18.80;8.67;;;11.30;99.90;;;;;;4411150;28;658675;-69
2021/08/18 02:48:24;;;;;;;13.73;7.67;;;11.30;99.90;;;;;;4394741;28;658090;-69
2021/08/18 02:51:11;;;;;;;17.07;7.47;;;11.30;99.90;;;;;;4409139;28;657622;-69
2021/08/18 02:54:00;;;;;;;17.47;6.33;;;11.20;99.90;;;;;;4393608;28;657731;-69
2021/08/18 02:56:48;;;;;;;11.53;6.13;;;11.30;99.90;;;;;;4392815;28;657205;-69
2021/08/18 02:59:35;;;;;;;17.90;12.03;;;11.30;99.90;;;;;;4412937;28;657914;-69
2021/08/18 03:02:23;;;;;;;18.73;10.27;;;11.30;99.90;;;;;;4392757;28;659117;-69
2021/08/18 03:05:12;;;;;;;20.90;10.00;;;11.30;99.90;;;;;;4410932;28;659188;-67
2021/08/18 03:07:59;;;;;;;22.80;12.13;;;11.30;99.90;;;;;;4392594;28;660220;-69
2021/08/18 03:10:49;;;;;;;40.07;19.77;;;11.30;99.90;;;;;;4400242;28;658608;-69
2021/08/18 03:13:36;;;;;;;22.63;9.40;;;11.30;99.90;;;;;;4411278;28;658667;-69
2021/08/18 03:16:24;;;;;;;16.37;8.73;;;11.30;99.90;;;;;;4393538;28;657555;-70
2021/08/18 03:19:11;;;;;;;15.90;7.63;;;11.30;99.90;;;;;;4412166;28;657863;-68
2021/08/18 03:21:59;;;;;;;23.77;8.07;;;11.20;99.90;;;;;;4389775;28;658623;-68
2021/08/18 03:24:47;;;;;;;25.10;9.27;;;11.20;99.90;;;;;;4415960;28;656975;-69
2021/08/18 03:27:36;;;;;;;16.77;7.30;;;11.20;99.90;;;;;;4389749;28;659883;-68
2021/08/18 03:30:23;;;;;;;12.87;7.43;;;11.20;99.90;;;;;;4393316;28;658303;-69
2021/08/18 03:33:12;;;;;;;17.23;7.90;;;11.20;99.90;;;;;;4392403;28;657426;-69
2021/08/18 03:36:00;;;;;;;11.77;6.93;;;11.20;99.90;;;;;;4412910;28;658677;-68
2021/08/18 03:38:47;;;;;;;13.30;6.40;;;11.10;99.90;;;;;;4393544;28;657353;-69
2021/08/18 03:41:38;;;;;;;13.00;7.20;;;11.20;99.90;;;;;;4411906;28;658175;-68
2021/08/18 03:44:57;;;;;;;11.57;6.50;;;11.10;99.90;;;;;;4389492;28;658902;-68
2021/08/18 03:47:45;;;;;;;9.67;4.73;;;11.20;99.90;;;;;;4370042;28;657941;-68
2021/08/18 03:50:54;;;;;;;8.77;4.70;;;11.10;99.90;;;;;;4394620;28;656671;-69
2021/08/18 03:53:41;;;;;;;9.60;4.70;;;11.20;99.90;;;;;;4390844;28;656479;-68
2021/08/18 03:56:29;;;;;;;10.80;5.30;;;11.20;99.90;;;;;;4394881;28;657127;-68
2021/08/18 03:59:17;;;;;;;10.73;5.27;;;11.20;99.90;;;;;;4411670;28;658034;-68
2021/08/18 04:02:06;;;;;;;10.17;5.13;;;11.20;99.90;;;;;;4393323;28;658222;-68
2021/08/18 04:04:53;;;;;;;11.90;5.30;;;11.20;99.90;;;;;;4392883;28;657783;-68
2021/08/18 04:07:41;;;;;;;15.33;4.90;;;11.20;99.90;;;;;;4411635;28;657864;-69
2021/08/18 04:13:30;;;;;;;10.73;5.57;;;11.20;99.90;;;;;;4301780;29;658234;-69
2021/08/18 04:16:17;;;;;;;17.43;7.17;;;11.30;99.90;;;;;;4306025;29;657657;-68
2021/08/18 04:19:07;;;;;;;62.00;26.20;;;11.30;99.90;;;;;;4328225;28;658545;-68
2021/08/18 04:21:54;;;;;;;89.70;29.53;;;11.40;99.90;;;;;;4304672;29;659778;-68
2021/08/18 04:24:42;;;;;;;92.67;36.40;;;11.40;99.90;;;;;;4314528;29;658358;-68
2021/08/18 04:27:30;;;;;;;75.73;36.03;;;11.50;99.90;;;;;;4327670;29;659571;-68
2021/08/18 04:30:18;;;;;;;45.13;20.63;;;11.60;99.90;;;;;;4305364;29;658986;-69
2021/08/18 04:33:06;;;;;;;35.47;16.93;;;11.70;99.90;;;;;;4323551;29;659312;-69
2021/08/18 04:35:54;;;;;;;73.67;28.60;;;11.80;99.90;;;;;;4320342;28;658458;-69
2021/08/18 04:38:43;;;;;;;53.57;24.53;;;11.90;99.90;;;;;;4329232;28;658706;-69
2021/08/18 04:41:30;;;;;;;52.27;21.40;;;11.90;99.90;;;;;;4414262;28;659166;-68
2021/08/18 04:44:18;;;;;;;34.87;15.10;;;12.00;99.90;;;;;;4390361;28;658934;-69
2021/08/18 04:47:06;;;;;;;34.72;15.63;;;12.10;99.90;;;;;;4404773;28;659816;-68
2021/08/18 04:49:54;;;;;;;31.43;13.23;;;12.10;99.90;;;;;;4391642;28;658648;-68
2021/08/18 04:52:45;;;;;;;22.85;11.23;;;12.30;99.90;;;;;;4406046;28;658786;-68
2021/08/18 04:55:34;;;;;;;29.43;12.13;;;12.30;99.90;;;;;;4367296;28;658389;-68
2021/08/18 04:58:23;;;;;;;20.83;8.68;;;12.40;99.90;;;;;;4410386;28;658689;-68
2021/08/18 05:01:14;;;;;;;22.17;10.43;;;12.50;99.90;;;;;;4388993;28;658388;-68
2021/08/18 05:04:03;;;;;;;19.33;6.77;;;12.60;99.90;;;;;;4374724;28;659042;-68
2021/08/18 05:06:56;;;;;;;15.37;7.00;;;12.60;99.90;;;;;;4388518;28;658154;-68
2021/08/18 05:09:51;;;;;;;17.03;6.60;;;12.60;99.90;;;;;;4365906;28;658682;-69
2021/08/18 05:12:40;;;;;;;12.70;5.53;;;12.80;99.90;;;;;;4366945;28;657433;-69
2021/08/18 05:15:30;;;;;;;12.90;5.83;;;12.80;99.90;;;;;;4389474;28;657597;-68
2021/08/18 05:18:22;;;;;;;15.03;6.33;;;12.90;99.90;;;;;;4394684;28;657746;-69
2021/08/18 05:21:14;;;;;;;11.27;5.67;;;13.00;99.90;;;;;;4389592;28;658179;-68
2021/08/18 05:24:01;;;;;;;14.13;5.50;;;13.00;99.90;;;;;;4392657;28;658655;-68
2021/08/18 05:26:57;;;;;;;12.53;5.20;;;13.10;99.90;;;;;;4390989;28;658427;-68
2021/08/18 05:29:45;;;;;;;12.83;5.70;;;13.20;99.90;;;;;;4366478;28;657821;-69
2021/08/18 05:32:34;;;;;;;12.63;5.70;;;13.20;99.90;;;;;;4395764;28;657353;-69
2021/08/18 05:35:27;;;;;;;9.87;5.03;;;13.30;99.90;;;;;;4406277;28;657806;-69
2021/08/18 05:38:26;;;;;;;19.10;5.57;;;13.30;99.90;;;;;;4395837;28;657028;-68
2021/08/18 05:41:15;;;;;;;12.47;6.20;;;13.40;99.90;;;;;;4368663;28;658039;-69
2021/08/18 05:44:06;;;;;;;12.13;5.03;;;13.40;99.90;;;;;;4395471;28;657872;-69
2021/08/18 05:46:58;;;;;;;11.40;4.90;;;13.40;99.90;;;;;;4384603;28;658171;-69
2021/08/18 05:49:48;;;;;;;11.93;4.97;;;13.40;99.90;;;;;;4390884;28;658266;-68
2021/08/18 05:52:44;;;;;;;11.13;5.07;;;13.40;99.90;;;;;;4390537;28;657676;-68
2021/08/18 05:55:34;;;;;;;16.00;5.87;;;13.40;99.90;;;;;;4391073;28;658147;-68
2021/08/18 05:58:23;;;;;;;11.40;5.10;;;13.50;99.90;;;;;;4390937;28;657840;-68
2021/08/18 06:01:12;;;;;;;10.47;5.40;;;13.60;99.90;;;;;;4416068;28;658234;-68
2021/08/18 06:03:59;;;;;;;12.63;5.60;;;13.60;99.90;;;;;;4391075;28;658943;-68
2021/08/18 06:06:47;;;;;;;9.73;5.57;;;13.70;99.90;;;;;;4409593;28;657794;-69
2021/08/18 06:09:37;;;;;;;14.30;6.27;;;13.80;99.90;;;;;;4414876;28;657220;-68
2021/08/18 06:12:24;;;;;;;16.37;5.57;;;13.90;99.90;;;;;;4394122;28;658593;-68
2021/08/18 06:15:13;;;;;;;13.07;5.67;;;13.90;99.90;;;;;;4410784;28;657386;-69
2021/08/18 06:18:05;;;;;;;10.27;5.60;;;14.10;99.90;;;;;;4412463;28;658512;-68
2021/08/18 06:20:52;;;;;;;13.47;5.73;;;14.00;99.90;;;;;;4377000;28;657854;-69
2021/08/18 06:23:40;;;;;;;14.17;5.13;;;14.10;99.90;;;;;;4413432;28;657837;-68
2021/08/18 06:26:28;;;;;;;14.20;5.63;;;14.30;99.90;;;;;;4394202;28;657817;-68
2021/08/18 06:29:17;;;;;;;11.00;5.47;;;14.30;99.90;;;;;;4413552;28;658536;-68
2021/08/18 06:32:05;;;;;;;11.47;4.73;;;14.20;99.90;;;;;;4391066;28;658623;-68
2021/08/18 06:34:54;;;;;;;9.30;4.77;;;14.20;99.90;;;;;;4394293;28;658145;-69
2021/08/18 06:37:42;;;;;;;11.80;5.90;;;14.10;99.90;;;;;;4413774;28;656626;-68
2021/08/18 06:40:29;;;;;;;17.23;6.00;;;14.20;99.90;;;;;;4394211;28;658689;-69
2021/08/18 06:43:17;;;;;;;17.00;5.47;;;14.30;99.90;;;;;;4412850;28;657507;-68
2021/08/18 06:46:05;;;;;;;13.60;5.80;;;14.40;99.90;;;;;;4390021;28;657969;-68
2021/08/18 06:48:52;;;;;;;14.00;6.47;;;14.40;99.90;;;;;;4395445;28;657438;-69
2021/08/18 06:51:42;;;;;;;11.40;6.10;;;14.30;99.90;;;;;;4415694;28;658516;-66
2021/08/18 06:54:29;;;;;;;17.17;6.13;;;14.40;99.90;;;;;;4390345;28;659029;-66
2021/08/18 06:57:17;;;;;;;12.70;5.97;;;14.40;99.90;;;;;;4407985;28;657487;-67
2021/08/18 07:00:06;;;;;;;16.53;6.17;;;14.40;99.90;;;;;;4416186;28;658905;-66
2021/08/18 07:02:54;;;;;;;14.17;5.50;;;14.50;99.90;;;;;;4393657;28;657444;-66
2021/08/18 07:05:41;;;;;;;13.33;6.23;;;14.60;99.90;;;;;;4412902;28;657640;-66
2021/08/18 07:08:30;;;;;;;9.87;5.73;;;14.60;99.90;;;;;;4393036;28;658030;-66
2021/08/18 07:11:18;;;;;;;17.10;6.13;;;14.80;99.90;;;;;;4394047;28;656661;-66
2021/08/18 07:14:06;;;;;;;14.53;6.20;;;14.80;99.90;;;;;;4412783;28;657656;-66
2021/08/18 07:16:53;;;;;;;16.87;6.57;;;14.80;99.90;;;;;;4393339;28;657857;-66
2021/08/18 07:19:41;;;;;;;11.57;6.20;;;14.80;99.90;;;;;;4411595;28;658458;-66
2021/08/18 07:22:28;;;;;;;11.33;5.90;;;14.60;99.90;;;;;;4392351;28;658253;-67
2021/08/18 07:25:17;;;;;;;14.67;5.60;;;14.70;99.90;;;;;;4412409;28;657788;-66
2021/08/18 07:28:05;;;;;;;12.07;5.93;;;14.70;99.90;;;;;;4389090;28;658445;-66
2021/08/18 07:30:52;;;;;;;15.57;6.50;;;14.70;99.90;;;;;;4393205;28;657895;-67
2021/08/18 07:33:40;;;;;;;10.87;5.97;;;14.80;99.90;;;;;;4415678;28;657799;-66
2021/08/18 07:36:28;;;;;;;15.93;6.47;;;14.90;99.90;;;;;;4393714;28;657597;-66
2021/08/18 07:39:15;;;;;;;8.30;3.63;;;14.90;99.90;;;;;;4415960;28;657902;-67
2021/08/18 07:42:05;;;;;;;13.17;5.90;;;15.00;99.90;;;;;;4393132;28;656762;-67
2021/08/18 07:44:53;;;;;;;15.43;5.93;;;14.90;99.90;;;;;;4392198;28;657987;-66
2021/08/18 07:47:41;;;;;;;12.33;6.27;;;14.90;99.90;;;;;;4412416;28;658608;-66
2021/08/18 07:50:29;;;;;;;12.40;6.28;;;15.00;99.90;;;;;;4393594;28;658166;-66
2021/08/18 07:53:16;;;;;;;15.47;6.50;;;15.10;99.90;;;;;;4411792;28;657407;-67
2021/08/18 07:56:04;;;;;;;12.67;6.57;;;15.20;99.90;;;;;;4393261;28;657582;-66
2021/08/18 07:58:53;;;;;;;13.80;6.10;;;15.40;99.90;;;;;;4411381;28;657310;-66
2021/08/18 08:01:42;;;;;;;15.67;6.40;;;15.70;99.90;;;;;;4389186;28;657840;-66
2021/08/18 08:04:30;;;;;;;13.97;6.73;;;15.80;99.90;;;;;;4389048;28;658044;-66
2021/08/18 08:07:18;;;;;;;16.97;6.83;;;16.00;99.90;;;;;;4393196;28;658090;-67
2021/08/18 08:10:07;;;;;;;11.63;5.90;;;16.10;99.90;;;;;;4411427;28;658671;-66
2021/08/18 08:12:55;;;;;;;18.30;6.87;;;16.40;99.90;;;;;;4393227;28;657714;-66
2021/08/18 08:15:44;;;;;;;20.97;7.07;;;16.50;99.90;;;;;;4396452;28;657941;-67
2021/08/18 08:18:32;;;;;;;17.50;7.30;;;16.70;99.90;;;;;;4411463;28;657834;-66
2021/08/18 08:21:19;;;;;;;10.23;6.40;;;17.10;99.90;;;;;;4389348;28;658436;-67
2021/08/18 08:24:07;;;;;;;12.40;6.17;;;17.40;99.90;;;;;;4402759;28;657860;-67
2021/08/18 08:26:55;;;;;;;11.10;6.13;;;17.60;99.90;;;;;;4409451;28;658549;-67
2021/08/18 08:29:49;;;;;;;13.50;6.93;;;17.50;99.90;;;;;;4393479;28;658156;-67
2021/08/18 08:32:45;;;;;;;16.47;6.27;;;17.40;99.90;;;;;;4389049;28;658224;-67
2021/08/18 08:35:37;;;;;;;10.93;5.53;;;17.50;99.90;;;;;;4372278;28;658068;-67
2021/08/18 08:38:29;;;;;;;13.57;6.03;;;17.70;99.90;;;;;;4388879;28;658205;-67
2021/08/18 08:41:22;;;;;;;12.80;6.13;;;18.00;99.90;;;;;;4389141;28;658299;-67
2021/08/18 08:44:14;;;;;;;14.37;5.80;;;18.40;99.90;;;;;;4366271;28;658486;-66
2021/08/18 08:47:08;;;;;;;13.53;6.57;;;18.50;99.90;;;;;;4388729;28;657749;-66
2021/08/18 08:49:57;;;;;;;10.50;6.30;;;18.70;99.90;;;;;;4388923;28;657886;-67
2021/08/18 08:52:45;;;;;;;11.40;6.13;;;18.80;99.90;;;;;;4396297;28;657684;-67
2021/08/18 08:55:33;;;;;;;12.63;5.80;;;18.50;99.90;;;;;;4401759;28;658042;-68
2021/08/18 08:58:20;;;;;;;10.77;6.13;;;18.20;99.90;;;;;;4417472;28;657797;-66
2021/08/18 09:01:11;;;;;;;12.17;5.73;;;17.60;99.90;;;;;;4395471;28;657621;-67
2021/08/18 09:03:59;;;;;;;14.37;6.73;;;17.30;99.90;;;;;;4396142;28;658260;-66
2021/08/18 09:06:48;;;;;;;12.80;6.78;;;17.40;99.90;;;;;;4414395;28;657631;-66
2021/08/18 09:09:36;;;;;;;12.77;6.00;;;17.10;99.90;;;;;;4391785;28;658205;-66
2021/08/18 09:12:29;;;;;;;14.13;6.67;;;17.20;99.90;;;;;;4395885;28;657920;-66
2021/08/18 09:15:18;;;;;;;11.77;6.67;;;17.20;99.90;;;;;;4391877;28;657529;-67
2021/08/18 09:18:06;;;;;;;14.67;6.00;;;17.20;99.90;;;;;;4414613;28;658015;-66
2021/08/18 09:20:54;;;;;;;16.17;6.67;;;17.60;99.90;;;;;;4395323;28;657799;-67
2021/08/18 09:23:43;;;;;;;17.70;6.83;;;17.80;99.90;;;;;;4414045;28;657836;-66
2021/08/18 09:26:30;;;;;;;10.67;5.97;;;18.30;99.90;;;;;;4390827;28;658061;-67
2021/08/18 09:29:32;;;;;;;13.53;6.47;;;18.80;99.90;;;;;;4396204;28;657600;-66
2021/08/18 09:32:28;;;;;;;15.33;6.03;;;18.90;99.90;;;;;;4369295;28;658604;-67
2021/08/18 09:35:17;;;;;;;11.17;5.27;;;18.50;99.90;;;;;;4391767;28;657640;-67
2021/08/18 09:38:06;;;;;;;12.90;5.83;;;18.30;99.90;;;;;;4395827;28;658228;-66
2021/08/18 09:40:55;;;;;;;8.07;4.70;;;18.40;99.90;;;;;;4388390;28;657788;-67
2021/08/18 09:43:43;;;;;;;9.73;5.50;;;18.70;99.90;;;;;;4396096;28;656527;-68
2021/08/18 09:46:34;;;;;;;15.03;5.87;;;18.90;99.90;;;;;;4417342;28;656830;-66
2021/08/18 09:49:22;;;;;;;10.60;5.50;;;19.20;99.90;;;;;;4379901;28;658068;-67
2021/08/18 09:52:15;;;;;;;9.40;4.40;;;19.30;99.90;;;;;;4417866;28;658438;-67
2021/08/18 09:55:04;;;;;;;12.87;5.80;;;19.60;99.90;;;;;;4373334;28;656667;-66
2021/08/18 09:57:54;;;;;;;12.37;5.10;;;19.60;99.90;;;;;;4413249;28;657659;-66
2021/08/18 10:00:41;;;;;;;16.33;5.77;;;20.00;99.90;;;;;;4412903;28;657219;-66
2021/08/18 10:03:36;;;;;;;9.27;4.50;;;20.00;99.90;;;;;;4389339;28;658787;-67
2021/08/18 10:06:24;;;;;;;9.50;4.77;;;20.30;99.90;;;;;;4368975;28;657252;-67
2021/08/18 10:09:12;;;;;;;12.03;5.40;;;20.40;99.90;;;;;;4406312;28;656951;-67
2021/08/18 10:12:00;;;;;;;11.50;5.27;;;20.30;99.90;;;;;;4416975;28;658055;-66
2021/08/18 10:14:49;;;;;;;10.23;5.17;;;20.10;99.90;;;;;;4394372;28;657700;-67
2021/08/18 10:17:40;;;;;;;8.50;4.70;;;20.10;99.90;;;;;;4413578;28;657815;-66
2021/08/18 10:20:29;;;;;;;12.60;5.10;;;20.10;99.90;;;;;;4395930;28;656283;-67
2021/08/18 10:23:16;;;;;;;12.00;5.60;;;20.30;99.90;;;;;;4413565;28;657705;-66
2021/08/18 10:26:04;;;;;;;11.53;5.20;;;20.00;99.90;;;;;;4394321;28;658563;-67
2021/08/18 10:29:01;;;;;;;12.27;5.07;;;19.70;99.90;;;;;;4413363;28;657398;-67
2021/08/18 10:32:01;;;;;;;10.47;5.10;;;19.40;99.90;;;;;;4358960;28;657630;-66
2021/08/18 10:34:51;;;;;;;12.53;5.60;;;19.20;99.90;;;;;;4368496;28;657828;-67
2021/08/18 10:37:45;;;;;;;9.20;5.20;;;19.60;99.90;;;;;;4390981;28;657620;-66
2021/08/18 10:40:39;;;;;;;7.33;4.33;;;20.10;99.90;;;;;;4373305;28;656357;-67
2021/08/18 10:43:58;;;;;;;10.93;5.93;;;20.10;99.90;;;;;;4380117;28;656888;-68
2021/08/18 10:47:21;;;;;;;10.37;5.67;;;20.60;99.90;;;;;;4389566;28;658263;-66
2021/08/18 10:50:43;;;;;;;11.60;5.90;;;20.20;99.90;;;;;;4394152;28;658095;-67
2021/08/18 10:53:34;;;;;;;9.60;4.87;;;20.20;99.90;;;;;;4390462;28;657906;-67
2021/08/18 10:56:44;;;;;;;13.95;5.90;;;20.40;99.90;;;;;;4391679;28;656768;-66
2021/08/18 10:59:56;;;;;;;16.67;5.87;;;20.40;99.90;;;;;;4375114;28;658205;-67
2021/08/18 11:03:02;;;;;;;12.20;6.23;;;20.60;99.90;;;;;;4367565;28;658483;-67
2021/08/18 11:05:50;;;;;;;10.90;5.77;;;20.20;99.90;;;;;;4367556;28;658320;-67
2021/08/18 11:08:39;;;;;;;10.33;5.37;;;20.00;99.90;;;;;;4394350;28;657622;-67
2021/08/18 11:11:28;;;;;;;8.93;4.90;;;19.70;99.90;;;;;;4412800;28;658122;-66
2021/08/18 11:14:16;;;;;;;9.73;5.13;;;19.60;99.90;;;;;;4390794;28;656878;-66
2021/08/18 11:17:06;;;;;;;14.27;5.63;;;19.70;99.90;;;;;;4395422;28;656600;-66
2021/08/18 11:19:57;;;;;;;12.70;6.00;;;19.30;99.90;;;;;;4392962;28;658004;-66
2021/08/18 11:22:49;;;;;;;11.27;5.67;;;19.50;99.90;;;;;;4392434;28;658531;-66
2021/08/18 11:25:42;;;;;;;11.53;5.30;;;19.60;99.90;;;;;;4381909;28;657713;-67
2021/08/18 11:28:31;;;;;;;10.63;4.70;;;19.80;99.90;;;;;;4388628;28;657592;-66
2021/08/18 11:31:19;;;;;;;6.40;4.07;;;20.20;99.90;;;;;;4389759;28;657287;-67
2021/08/18 11:34:18;;;;;;;6.80;3.40;;;20.70;99.90;;;;;;4413520;28;656635;-67
2021/08/18 11:37:08;;;;;;;6.70;3.53;;;20.70;99.90;;;;;;4390815;28;656517;-67
2021/08/18 11:39:57;;;;;;;7.67;3.57;;;21.00;99.90;;;;;;4390302;28;657344;-67
2021/08/18 11:42:45;;;;;;;9.03;3.53;;;21.70;99.90;;;;;;4389895;28;657394;-66
2021/08/18 11:45:35;;;;;;;8.17;4.20;;;21.60;99.90;;;;;;4394558;28;657313;-67
2021/08/18 11:48:23;;;;;;;6.87;4.00;;;21.30;99.90;;;;;;4397630;28;656552;-67
2021/08/18 11:51:19;;;;;;;9.40;3.67;;;21.30;99.90;;;;;;4412734;28;657201;-66
2021/08/18 11:54:09;;;;;;;6.10;3.53;;;20.60;99.90;;;;;;4390343;28;657074;-66
2021/08/18 11:57:01;;;;;;;7.27;3.70;;;20.70;99.90;;;;;;4390213;28;656594;-66
2021/08/18 11:59:50;;;;;;;5.23;3.37;;;20.90;99.90;;;;;;4367679;28;657292;-66
2021/08/18 12:02:38;;;;;;;7.80;4.30;;;21.40;99.90;;;;;;4394582;28;656665;-67
2021/08/18 12:05:29;;;;;;;7.53;4.13;;;21.60;99.90;;;;;;4413202;28;656626;-66
2021/08/18 12:08:18;;;;;;;9.70;4.57;;;21.00;99.90;;;;;;4411158;28;657305;-67
2021/08/18 12:11:07;;;;;;;6.30;3.90;;;21.30;99.90;;;;;;4416427;28;658251;-66
2021/08/18 12:13:55;;;;;;;9.63;4.00;;;21.70;99.90;;;;;;4383852;28;657123;-66
2021/08/18 12:16:44;;;;;;;4.30;2.57;;;21.90;99.90;;;;;;4394586;28;656727;-67
2021/08/18 12:19:35;;;;;;;12.73;3.70;;;21.80;99.90;;;;;;4412930;28;656868;-66
2021/08/18 12:22:27;;;;;;;8.37;4.40;;;21.80;99.90;;;;;;4368939;28;657767;-66
2021/08/18 12:25:17;;;;;;;6.97;3.87;;;21.30;99.90;;;;;;4390379;28;657488;-66
2021/08/18 12:28:14;;;;;;;9.47;4.27;;;20.80;99.90;;;;;;4393938;28;657828;-66
2021/08/18 12:31:02;;;;;;;9.83;4.67;;;21.00;99.90;;;;;;4382443;28;656458;-66
2021/08/18 12:34:05;;;;;;;9.40;4.37;;;21.10;99.90;;;;;;4395026;28;657377;-66
2021/08/18 12:36:59;;;;;;;9.60;3.90;;;21.40;99.90;;;;;;4374743;28;656780;-67
2021/08/18 12:39:48;;;;;;;7.17;3.43;;;21.70;99.90;;;;;;4391522;28;656415;-66
2021/08/18 12:42:36;;;;;;;7.53;3.80;;;22.00;99.90;;;;;;4393285;28;657599;-66
2021/08/18 12:45:27;;;;;;;5.80;3.43;;;21.90;99.90;;;;;;4396965;28;656398;-66
2021/08/18 12:48:24;;;;;;;6.57;3.70;;;21.80;99.90;;;;;;4393546;28;657077;-66
2021/08/18 12:51:12;;;;;;;7.57;3.47;;;21.70;99.90;;;;;;4394127;28;656996;-66
2021/08/18 12:54:00;;;;;;;5.90;2.97;;;21.80;99.90;;;;;;4394240;28;657056;-66
2021/08/18 12:56:54;;;;;;;5.60;3.20;;;21.40;99.90;;;;;;4398135;28;656762;-66
2021/08/18 12:59:42;;;;;;;5.83;3.17;;;21.90;99.90;;;;;;4392580;28;656160;-66
2021/08/18 13:02:31;;;;;;;8.60;3.50;;;22.00;99.90;;;;;;4393106;28;657119;-67
2021/08/18 13:05:19;;;;;;;6.40;3.63;;;21.00;99.90;;;;;;4395973;28;656446;-66
2021/08/18 13:08:06;;;;;;;7.30;3.37;;;20.40;99.90;;;;;;4416338;28;656194;-66
2021/08/18 13:10:54;;;;;;;7.40;3.97;;;20.00;99.90;;;;;;4397154;28;657232;-66
2021/08/18 13:13:41;;;;;;;8.33;4.43;;;19.70;99.90;;;;;;4414880;28;656198;-66
2021/08/18 13:16:29;;;;;;;7.03;4.33;;;19.40;99.90;;;;;;4397551;28;656645;-66
2021/08/18 13:19:18;;;;;;;10.27;4.53;;;19.60;99.90;;;;;;4415499;28;656303;-66
2021/08/18 13:22:06;;;;;;;13.10;4.87;;;19.70;99.90;;;;;;4391382;28;658936;-66
2021/08/18 13:24:54;;;;;;;7.90;4.17;;;19.90;99.90;;;;;;4395280;28;657731;-66
2021/08/18 13:27:49;;;;;;;8.17;4.63;;;19.70;99.90;;;;;;4414370;28;656018;-66
2021/08/18 13:30:37;;;;;;;6.17;4.00;;;19.60;99.90;;;;;;4392897;28;656484;-66
2021/08/18 13:33:25;;;;;;;8.10;3.97;;;19.50;99.90;;;;;;4392827;28;657058;-66
2021/08/18 13:36:14;;;;;;;6.67;3.60;;;20.20;99.90;;;;;;4399304;28;656437;-66
2021/08/18 13:39:02;;;;;;;5.73;3.40;;;20.90;99.90;;;;;;4415694;28;656645;-66
2021/08/18 13:41:49;;;;;;;6.43;3.53;;;21.20;99.90;;;;;;4396828;28;657231;-67
2021/08/18 13:44:37;;;;;;;6.87;3.30;;;21.70;99.90;;;;;;4406055;28;656429;-67
2021/08/18 13:47:25;;;;;;;7.60;3.23;;;22.00;99.90;;;;;;4415816;28;657482;-66
2021/08/18 13:50:12;;;;;;;7.35;3.33;;;21.80;99.90;;;;;;4396682;28;656849;-67
2021/08/18 13:53:01;;;;;;;4.47;3.10;;;22.30;99.90;;;;;;4415773;28;658265;-66
2021/08/18 13:55:49;;;;;;;7.37;3.43;;;21.70;99.90;;;;;;4392699;28;657706;-66
2021/08/18 13:58:36;;;;;;;7.10;3.57;;;21.70;99.90;;;;;;4415906;28;656813;-66
2021/08/18 14:01:30;;;;;;;6.87;3.50;;;22.00;99.90;;;;;;4392014;28;657434;-66
2021/08/18 14:04:18;;;;;;;7.63;3.47;;;22.30;99.90;;;;;;4372086;28;656674;-67
2021/08/18 14:07:12;;;;;;;6.13;3.10;;;22.30;99.90;;;;;;4415341;28;657163;-66
2021/08/18 14:10:02;;;;;;;7.20;3.33;;;22.60;99.90;;;;;;4363978;28;657308;-66
2021/08/18 14:12:49;;;;;;;7.70;3.80;;;22.20;99.90;;;;;;4390985;28;657421;-66
2021/08/18 14:15:38;;;;;;;7.40;3.67;;;22.30;99.90;;;;;;4411032;28;656446;-66
2021/08/18 14:18:25;;;;;;;7.20;3.63;;;21.80;99.90;;;;;;4414671;28;657634;-66
2021/08/18 14:21:13;;;;;;;9.20;3.97;;;21.30;99.90;;;;;;4395854;28;656503;-67
2021/08/18 14:24:01;;;;;;;6.60;3.80;;;20.60;99.90;;;;;;4414098;28;656744;-66
2021/08/18 14:26:50;;;;;;;6.13;3.47;;;20.70;99.90;;;;;;4395566;28;656542;-66